Syn Atlas — IBVA — position and weather

sailwx.info

Track history (hours):
 
Tides and Currents Weather Stations Pressure Air Temp Water Temp Dewpoint Dewpoint Depression Visibility Wind Speed Wind Dir Waves Ship Positions

Syn Atlas

Last reported at 2017-Nov-10 01:26 UTC. Time now 2017-Nov-19 03:27 UTC.
Position N 37°18' E 015°24'.
Warning: this ship's position is 9 days out of date.

Length 106 m; draft 5.4 m.

Type: Ship (hazmat cat D). MMSI: 247265000.

Date/timePositionNaut miles runAvg speedWind from/ knotsBaromVisibWave heightAir tempDewpointWater temp
2017-Nov-10 01:26N 37°18' E 015°24'512.7
2017-Nov-10 01:00N 37°22' E 015°29'912.8
2017-Nov-10 00:20N 37°29' E 015°37'812.4
2017-Nov-09 23:39N 37°34' E 015°44'212.3
2017-Nov-09 23:29N 37°36' E 015°46'712.4
2017-Nov-09 22:56N 37°41' E 015°52'512.5
2017-Nov-09 22:30N 37°45' E 015°57'712.2
2017-Nov-09 21:57N 37°49' E 016°03'421 9.7
2017-Nov-08 02:27N 44°23' E 012°48'612.6
2017-Nov-08 02:00N 44°26' E 012°41'1013.1
2017-Nov-08 01:16N 44°29' E 012°28'  
2017-Nov-05 03:41N 39°42' E 018°23'312.9
2017-Nov-05 03:29N 39°41' E 018°20'1912.9
2017-Nov-05 02:02N 39°28' E 018°03'312.9
2017-Nov-05 01:50N 39°26' E 018°01'13512.1
2017-Nov-04 14:39N 37°49' E 016°01'212.7
2017-Nov-04 14:30N 37°47' E 015°59'612.5
2017-Nov-04 14:00N 37°43' E 015°54'612.4
2017-Nov-04 13:29N 37°38' E 015°48'812.7
2017-Nov-04 12:52N 37°32' E 015°41'513.1
2017-Nov-04 12:29N 37°29' E 015°37'712.9
2017-Nov-04 11:58N 37°24' E 015°31'6 0.2
2017-Nov-02 20:15N 37°28' E 015°37'10813.3
2017-Nov-02 12:07N 38°49' E 017°09'113.9
2017-Nov-02 12:00N 38°50' E 017°10'  
Track history (hours):
 
Tides and Currents Weather Stations Pressure Air Temp Water Temp Dewpoint Dewpoint Depression Visibility Wind Speed Wind Dir Waves Ship Positions

Syn Atlas

Last reported at 2017-Nov-10 01:26 UTC. Time now 2017-Nov-19 03:27 UTC.
Position N 37°18' E 015°24'.
Warning: this ship's position is 9 days out of date.

Length 106 m; draft 5.4 m.

Type: Ship (hazmat cat D). MMSI: 247265000.

Date/timePositionNaut miles runAvg speedWind from/ knotsBaromVisibWave heightAir tempDewpointWater temp
2017-Nov-10 01:26N 37°18' E 015°24'512.7
2017-Nov-10 01:00N 37°22' E 015°29'912.8
2017-Nov-10 00:20N 37°29' E 015°37'812.4
2017-Nov-09 23:39N 37°34' E 015°44'212.3
2017-Nov-09 23:29N 37°36' E 015°46'712.4
2017-Nov-09 22:56N 37°41' E 015°52'512.5
2017-Nov-09 22:30N 37°45' E 015°57'712.2
2017-Nov-09 21:57N 37°49' E 016°03'421 9.7
2017-Nov-08 02:27N 44°23' E 012°48'612.6
2017-Nov-08 02:00N 44°26' E 012°41'1013.1
2017-Nov-08 01:16N 44°29' E 012°28'  
2017-Nov-05 03:41N 39°42' E 018°23'312.9
2017-Nov-05 03:29N 39°41' E 018°20'1912.9
2017-Nov-05 02:02N 39°28' E 018°03'312.9
2017-Nov-05 01:50N 39°26' E 018°01'13512.1
2017-Nov-04 14:39N 37°49' E 016°01'212.7
2017-Nov-04 14:30N 37°47' E 015°59'612.5
2017-Nov-04 14:00N 37°43' E 015°54'612.4
2017-Nov-04 13:29N 37°38' E 015°48'812.7
2017-Nov-04 12:52N 37°32' E 015°41'513.1
2017-Nov-04 12:29N 37°29' E 015°37'712.9
2017-Nov-04 11:58N 37°24' E 015°31'6 0.2
2017-Nov-02 20:15N 37°28' E 015°37'10813.3
2017-Nov-02 12:07N 38°49' E 017°09'113.9
2017-Nov-02 12:00N 38°50' E 017°10'  

Dump ship's entire track history